Time;durP1;ratioP1;P1;durP2;ratioP2;P2;SDS_P1;SDS_P2;PMS_P1;PMS_P2;Temp;Humidity;BMP_temperature;BMP_pressure;BME280_temperature;BME280_humidity;BME280_pressure;Samples;Min_cycle;Max_cycle;Signal;HPM_P1;HPM_P2
2024/01/07 00:00:13;;;;;;;6.90;5.07;;;;;;;;;;5114151;28;20192;-77
2024/01/07 00:02:40;;;;;;;4.27;3.80;;;;;;;;;;5112476;28;20202;-77
2024/01/07 00:05:08;;;;;;;4.37;3.83;;;;;;;;;;5113568;28;20685;-77
2024/01/07 00:07:36;;;;;;;7.00;4.30;;;;;;;;;;5113967;28;20191;-77
2024/01/07 00:10:03;;;;;;;5.30;4.53;;;;;;;;;;5113538;28;20215;-77
2024/01/07 00:12:30;;;;;;;8.57;5.37;;;;;;;;;;5111465;28;20195;-77
2024/01/07 00:14:56;;;;;;;5.97;5.33;;;;;;;;;;5111981;28;20215;-77
2024/01/07 00:17:24;;;;;;;7.60;6.23;;;;;;;;;;5112757;28;20702;-77
2024/01/07 00:19:50;;;;;;;6.13;5.63;;;;;;;;;;5113569;28;20654;-77
2024/01/07 00:22:17;;;;;;;4.00;3.70;;;;;;;;;;5113632;28;20259;-78
2024/01/07 00:24:45;;;;;;;6.13;5.53;;;;;;;;;;5112537;28;20575;-78
2024/01/07 00:27:12;;;;;;;4.87;3.30;;;;;;;;;;5112235;28;20199;-79
2024/01/07 00:29:39;;;;;;;3.97;3.53;;;;;;;;;;5113130;28;20196;-78
2024/01/07 00:32:06;;;;;;;4.10;3.33;;;;;;;;;;5113699;28;20215;-79
2024/01/07 00:34:33;;;;;;;3.63;3.33;;;;;;;;;;5111596;28;20230;-79
2024/01/07 00:37:00;;;;;;;8.53;7.27;;;;;;;;;;5111662;28;20203;-79
2024/01/07 00:39:26;;;;;;;4.80;4.40;;;;;;;;;;5112150;28;20200;-78
2024/01/07 00:41:55;;;;;;;5.47;3.43;;;;;;;;;;5112820;28;20278;-78
2024/01/07 00:44:21;;;;;;;2.80;2.60;;;;;;;;;;5113172;28;20661;-78
2024/01/07 00:46:48;;;;;;;3.77;3.30;;;;;;;;;;5111587;28;20194;-78
2024/01/07 00:49:15;;;;;;;4.27;3.50;;;;;;;;;;5113219;28;20199;-78
2024/01/07 00:51:42;;;;;;;4.00;3.70;;;;;;;;;;5112729;28;20667;-78
2024/01/07 00:54:11;;;;;;;5.13;4.63;;;;;;;;;;5112826;28;20199;-78
2024/01/07 00:56:38;;;;;;;6.03;5.10;;;;;;;;;;5111736;28;20195;-78
2024/01/07 00:59:06;;;;;;;6.37;4.30;;;;;;;;;;5111894;28;20252;-78
2024/01/07 01:01:32;;;;;;;4.00;3.70;;;;;;;;;;5112713;28;20260;-78
2024/01/07 01:03:59;;;;;;;3.90;3.50;;;;;;;;;;5112586;28;20206;-78
2024/01/07 01:06:26;;;;;;;5.60;4.43;;;;;;;;;;5111118;28;20195;-78
2024/01/07 01:08:56;;;;;;;4.67;4.27;;;;;;;;;;5112770;28;20319;-78
2024/01/07 01:11:22;;;;;;;4.00;3.70;;;;;;;;;;5100582;28;20638;-79
2024/01/07 01:13:49;;;;;;;3.07;2.87;;;;;;;;;;5105647;28;20654;-79
2024/01/07 01:16:17;;;;;;;2.23;2.10;;;;;;;;;;5111436;28;20689;-80
2024/01/07 01:18:44;;;;;;;2.63;2.43;;;;;;;;;;5112293;28;20276;-79
2024/01/07 01:21:12;;;;;;;2.60;2.40;;;;;;;;;;5112127;28;20688;-79
2024/01/07 01:23:38;;;;;;;1.80;1.70;;;;;;;;;;5111432;28;20240;-79
2024/01/07 01:26:05;;;;;;;2.73;1.90;;;;;;;;;;5112359;28;20259;-79
2024/01/07 01:28:32;;;;;;;1.90;1.80;;;;;;;;;;5111596;28;20678;-79
2024/01/07 01:30:59;;;;;;;2.50;2.30;;;;;;;;;;5111401;28;20624;-79
2024/01/07 01:33:27;;;;;;;1.80;1.60;;;;;;;;;;5111288;28;20230;-78
2024/01/07 01:35:53;;;;;;;2.10;2.00;;;;;;;;;;5112460;28;20705;-78
2024/01/07 01:38:20;;;;;;;2.47;2.20;;;;;;;;;;5114993;28;20218;-78
2024/01/07 01:40:55;;;;;;;2.33;1.70;;;;;;;;;;5116361;28;20192;-78
2024/01/07 01:43:25;;;;;;;1.80;1.70;;;;;;;;;;5115275;28;20290;-78
2024/01/07 01:45:53;;;;;;;1.60;1.50;;;;;;;;;;5115780;28;20199;-78
2024/01/07 01:48:19;;;;;;;1.70;1.60;;;;;;;;;;5115793;28;20258;-78
2024/01/07 01:50:48;;;;;;;1.43;1.33;;;;;;;;;;5117155;28;20199;-78
2024/01/07 01:53:15;;;;;;;0.97;0.97;;;;;;;;;;5116599;28;20195;-77
2024/01/07 01:55:42;;;;;;;2.03;1.20;;;;;;;;;;5116082;28;20223;-78
2024/01/07 01:58:10;;;;;;;1.13;1.13;;;;;;;;;;5115249;28;20202;-78
2024/01/07 02:00:37;;;;;;;1.00;1.00;;;;;;;;;;5116242;28;20195;-77
2024/01/07 02:03:04;;;;;;;1.20;1.10;;;;;;;;;;5114812;28;20337;-78
2024/01/07 02:05:31;;;;;;;1.17;1.00;;;;;;;;;;5116079;28;20200;-77
2024/01/07 02:08:00;;;;;;;3.07;1.30;;;;;;;;;;5114525;28;20195;-77
2024/01/07 02:10:28;;;;;;;1.37;1.27;;;;;;;;;;5106452;28;20195;-77
2024/01/07 02:12:55;;;;;;;1.47;1.37;;;;;;;;;;5115439;28;20210;-77
2024/01/07 02:15:22;;;;;;;1.80;1.30;;;;;;;;;;5114241;28;20217;-78
2024/01/07 02:17:49;;;;;;;3.17;2.80;;;;;;;;;;5115029;28;20198;-78
2024/01/07 02:20:15;;;;;;;1.77;1.67;;;;;;;;;;5115775;28;20191;-78
2024/01/07 02:22:42;;;;;;;2.23;2.00;;;;;;;;;;5114860;28;20225;-78
2024/01/07 02:25:13;;;;;;;4.40;4.00;;;;;;;;;;5115719;28;20272;-78
2024/01/07 02:27:40;;;;;;;6.03;5.53;;;;;;;;;;5115468;28;20663;-78
2024/01/07 02:30:08;;;;;;;2.80;2.60;;;;;;;;;;5115933;28;20305;-78
2024/01/07 02:32:36;;;;;;;3.17;2.37;;;;;;;;;;5115548;28;20236;-78
2024/01/07 02:35:03;;;;;;;2.60;2.40;;;;;;;;;;5115379;28;20220;-77
2024/01/07 02:37:30;;;;;;;2.17;1.83;;;;;;;;;;5115869;28;20207;-77
2024/01/07 02:39:57;;;;;;;2.70;2.50;;;;;;;;;;5115875;28;20202;-77
2024/01/07 02:42:25;;;;;;;2.97;2.77;;;;;;;;;;5114629;28;20206;-78
2024/01/07 02:44:51;;;;;;;2.33;2.13;;;;;;;;;;5115260;28;20731;-77
2024/01/07 02:47:18;;;;;;;2.90;2.70;;;;;;;;;;5113198;28;20195;-78
2024/01/07 02:49:45;;;;;;;3.90;2.40;;;;;;;;;;5113891;28;20253;-77
2024/01/07 02:52:12;;;;;;;5.10;4.63;;;;;;;;;;5115044;28;20277;-78
2024/01/07 02:54:38;;;;;;;5.00;4.37;;;;;;;;;;5114998;28;20206;-78
2024/01/07 02:57:05;;;;;;;4.97;4.47;;;;;;;;;;5114805;28;20215;-78
2024/01/07 02:59:34;;;;;;;3.97;3.60;;;;;;;;;;5113529;28;20252;-78
2024/01/07 03:02:01;;;;;;;4.27;3.93;;;;;;;;;;5114299;28;20282;-78
2024/01/07 03:04:27;;;;;;;2.83;2.60;;;;;;;;;;5115339;28;20195;-78
2024/01/07 03:06:54;;;;;;;3.43;3.13;;;;;;;;;;5115136;28;20199;-78
2024/01/07 03:09:21;;;;;;;4.00;3.33;;;;;;;;;;5115023;28;20199;-78
2024/01/07 03:11:48;;;;;;;4.57;3.50;;;;;;;;;;5114847;28;20199;-78
2024/01/07 03:14:16;;;;;;;2.80;2.60;;;;;;;;;;5113037;28;20204;-78
2024/01/07 03:16:44;;;;;;;3.67;3.37;;;;;;;;;;5113684;28;20215;-77
2024/01/07 03:19:11;;;;;;;3.23;2.97;;;;;;;;;;5114060;28;20199;-78
2024/01/07 03:21:38;;;;;;;3.67;3.37;;;;;;;;;;5114581;28;20196;-78
2024/01/07 03:24:05;;;;;;;4.10;3.80;;;;;;;;;;5114784;28;20230;-77
2024/01/07 03:26:33;;;;;;;4.23;3.83;;;;;;;;;;5114711;28;20195;-77
2024/01/07 03:29:01;;;;;;;4.93;4.53;;;;;;;;;;5114956;28;20278;-77
2024/01/07 03:31:28;;;;;;;6.97;5.33;;;;;;;;;;5114433;28;20207;-77
2024/01/07 03:33:57;;;;;;;5.03;4.63;;;;;;;;;;5115074;28;20538;-77
2024/01/07 03:36:24;;;;;;;5.23;4.83;;;;;;;;;;5112949;28;20223;-77
2024/01/07 03:38:50;;;;;;;5.00;4.50;;;;;;;;;;5114318;28;20620;-77
2024/01/07 03:41:18;;;;;;;5.03;4.53;;;;;;;;;;5114009;28;20199;-77
2024/01/07 03:43:45;;;;;;;4.87;4.37;;;;;;;;;;5115191;28;20290;-77
2024/01/07 03:46:12;;;;;;;5.20;3.97;;;;;;;;;;5113907;28;20196;-77
2024/01/07 03:48:39;;;;;;;3.90;3.60;;;;;;;;;;5112956;28;20570;-78
2024/01/07 03:51:07;;;;;;;4.77;4.30;;;;;;;;;;5112961;28;20210;-78
2024/01/07 03:53:34;;;;;;;4.57;4.13;;;;;;;;;;5113155;28;20198;-79
2024/01/07 03:56:00;;;;;;;3.80;3.50;;;;;;;;;;5113252;28;20272;-80
2024/01/07 03:58:27;;;;;;;3.90;3.60;;;;;;;;;;5113601;28;20218;-80
2024/01/07 04:00:54;;;;;;;3.40;3.10;;;;;;;;;;5113530;28;20195;-79
2024/01/07 04:03:21;;;;;;;3.50;3.20;;;;;;;;;;5113927;28;20657;-79
2024/01/07 04:05:47;;;;;;;2.80;2.60;;;;;;;;;;5113622;28;20206;-80
2024/01/07 04:08:16;;;;;;;2.37;2.17;;;;;;;;;;5111280;28;20627;-80
2024/01/07 04:10:43;;;;;;;2.23;2.13;;;;;;;;;;5092880;28;20666;-80
2024/01/07 04:13:10;;;;;;;3.10;2.50;;;;;;;;;;5102515;28;20244;-80
2024/01/07 04:15:36;;;;;;;3.00;2.80;;;;;;;;;;5113444;28;20223;-80
2024/01/07 04:18:04;;;;;;;3.20;3.00;;;;;;;;;;5113720;28;20256;-80
2024/01/07 04:20:31;;;;;;;3.10;2.83;;;;;;;;;;5111896;28;20200;-80
2024/01/07 04:22:58;;;;;;;2.83;2.30;;;;;;;;;;5112375;28;20200;-81
2024/01/07 04:25:26;;;;;;;3.03;2.73;;;;;;;;;;5113225;28;20605;-82
2024/01/07 04:27:55;;;;;;;2.97;2.73;;;;;;;;;;5112267;28;20210;-81
2024/01/07 04:30:22;;;;;;;2.60;2.40;;;;;;;;;;5112132;28;20195;-81
2024/01/07 04:32:49;;;;;;;3.20;2.90;;;;;;;;;;5113427;28;20223;-81
2024/01/07 04:35:16;;;;;;;2.77;2.47;;;;;;;;;;5112206;28;20691;-81
2024/01/07 04:37:43;;;;;;;2.83;2.63;;;;;;;;;;5113080;28;20207;-81
2024/01/07 04:40:11;;;;;;;4.23;2.40;;;;;;;;;;5113574;28;20218;-81
2024/01/07 04:42:39;;;;;;;2.63;2.47;;;;;;;;;;5113374;28;20679;-81
2024/01/07 04:45:06;;;;;;;2.43;2.00;;;;;;;;;;5113000;28;20204;-80
2024/01/07 04:47:34;;;;;;;2.53;2.33;;;;;;;;;;5113746;28;20217;-80
2024/01/07 04:50:01;;;;;;;1.60;1.50;;;;;;;;;;5111771;28;20234;-80
2024/01/07 04:52:28;;;;;;;2.67;2.40;;;;;;;;;;5111758;28;20206;-79
2024/01/07 04:54:55;;;;;;;1.97;1.87;;;;;;;;;;5112276;28;20654;-80
2024/01/07 04:57:23;;;;;;;1.73;1.50;;;;;;;;;;5112618;28;20222;-80
2024/01/07 04:59:52;;;;;;;1.53;1.43;;;;;;;;;;5111935;28;20244;-80
2024/01/07 05:02:18;;;;;;;1.77;1.30;;;;;;;;;;5112986;28;20199;-80
2024/01/07 05:04:45;;;;;;;2.00;1.60;;;;;;;;;;5112799;28;20191;-79
2024/01/07 05:07:12;;;;;;;1.77;1.30;;;;;;;;;;5112732;28;20200;-79
2024/01/07 05:09:40;;;;;;;1.63;1.50;;;;;;;;;;5111451;28;20195;-80
2024/01/07 05:12:08;;;;;;;1.03;0.63;;;;;;;;;;5112578;28;20195;-79
2024/01/07 05:14:34;;;;;;;1.00;0.70;;;;;;;;;;5112537;28;20196;-80
2024/01/07 05:17:03;;;;;;;2.53;1.17;;;;;;;;;;5110772;28;20234;-80
2024/01/07 05:19:29;;;;;;;1.93;1.10;;;;;;;;;;5112620;28;20206;-79
2024/01/07 05:21:56;;;;;;;1.00;0.83;;;;;;;;;;5112790;28;20207;-79
2024/01/07 05:24:23;;;;;;;1.87;0.90;;;;;;;;;;5111037;28;20210;-79
2024/01/07 05:26:50;;;;;;;0.50;0.40;;;;;;;;;;5112371;28;20594;-79
2024/01/07 05:29:17;;;;;;;1.43;0.80;;;;;;;;;;5111744;28;20202;-79
2024/01/07 05:31:43;;;;;;;1.23;0.80;;;;;;;;;;5111760;28;20230;-79
2024/01/07 05:34:12;;;;;;;0.90;0.90;;;;;;;;;;5112234;28;20191;-78
2024/01/07 05:36:39;;;;;;;1.00;1.00;;;;;;;;;;5110972;28;20634;-79
2024/01/07 05:39:06;;;;;;;2.67;1.20;;;;;;;;;;5111453;28;20715;-79
2024/01/07 05:41:33;;;;;;;0.53;0.53;;;;;;;;;;5112631;28;20199;-79
2024/01/07 05:44:00;;;;;;;0.90;0.90;;;;;;;;;;5112208;28;20701;-79
2024/01/07 05:46:27;;;;;;;0.43;0.43;;;;;;;;;;5112104;28;20203;-79
2024/01/07 05:48:53;;;;;;;2.97;2.67;;;;;;;;;;5112105;28;20574;-79
2024/01/07 05:51:21;;;;;;;1.93;1.10;;;;;;;;;;5112110;28;20192;-79
2024/01/07 05:53:48;;;;;;;1.40;1.30;;;;;;;;;;5110715;28;20199;-78
2024/01/07 05:56:15;;;;;;;1.23;1.13;;;;;;;;;;5110567;28;20215;-79
2024/01/07 05:58:42;;;;;;;2.57;2.37;;;;;;;;;;5111278;28;20685;-79
2024/01/07 06:01:10;;;;;;;2.00;1.50;;;;;;;;;;5111335;28;20195;-78
2024/01/07 06:03:37;;;;;;;5.80;5.23;;;;;;;;;;5090907;28;20200;-79
2024/01/07 06:06:04;;;;;;;4.67;4.23;;;;;;;;;;5091712;28;20710;-78
2024/01/07 06:08:34;;;;;;;3.43;3.13;;;;;;;;;;5090738;28;20192;-78
2024/01/07 06:11:01;;;;;;;3.00;1.53;;;;;;;;;;5091555;28;20230;-79
2024/01/07 06:13:27;;;;;;;0.80;0.80;;;;;;;;;;5090486;28;20693;-79
2024/01/07 06:15:54;;;;;;;0.60;0.60;;;;;;;;;;5091359;28;20207;-78
2024/01/07 06:18:21;;;;;;;0.73;0.67;;;;;;;;;;5091866;28;20201;-79
2024/01/07 06:20:48;;;;;;;2.60;1.97;;;;;;;;;;5091777;28;20196;-79
2024/01/07 06:23:15;;;;;;;3.43;2.77;;;;;;;;;;5093505;28;20199;-78
2024/01/07 06:25:43;;;;;;;4.20;3.80;;;;;;;;;;5115719;28;20203;-79
2024/01/07 06:28:11;;;;;;;2.50;2.30;;;;;;;;;;5113979;28;20616;-78
2024/01/07 06:30:37;;;;;;;12.17;11.07;;;;;;;;;;5116039;28;20295;-78
2024/01/07 06:33:06;;;;;;;2.67;2.47;;;;;;;;;;5116050;28;20223;-78
2024/01/07 06:35:33;;;;;;;1.67;1.57;;;;;;;;;;5115901;28;20271;-79
2024/01/07 06:37:59;;;;;;;3.67;1.37;;;;;;;;;;5114024;28;20223;-78
2024/01/07 06:40:26;;;;;;;0.60;0.60;;;;;;;;;;5114962;28;20252;-78
2024/01/07 06:42:57;;;;;;;1.10;1.00;;;;;;;;;;5115004;28;20200;-78
2024/01/07 06:45:24;;;;;;;1.33;1.10;;;;;;;;;;5115235;28;20212;-78
2024/01/07 06:47:53;;;;;;;1.70;0.90;;;;;;;;;;5113673;28;20202;-78
2024/01/07 06:50:21;;;;;;;1.83;0.80;;;;;;;;;;5115369;28;20567;-78
2024/01/07 06:52:47;;;;;;;1.03;1.03;;;;;;;;;;5115294;28;20203;-79
2024/01/07 06:55:14;;;;;;;2.13;1.77;;;;;;;;;;5113890;28;20202;-79
2024/01/07 06:57:41;;;;;;;1.50;0.90;;;;;;;;;;5114612;28;20225;-79
2024/01/07 07:00:15;;;;;;;8.20;5.17;;;;;;;;;;5114745;28;20206;-79
2024/01/07 07:02:41;;;;;;;3.70;3.40;;;;;;;;;;5113978;28;20192;-79
2024/01/07 07:05:11;;;;;;;2.33;1.53;;;;;;;;;;5114180;28;20557;-79
2024/01/07 07:07:38;;;;;;;1.70;1.43;;;;;;;;;;5114216;28;20210;-79
2024/01/07 07:10:05;;;;;;;2.20;1.47;;;;;;;;;;5110695;28;20208;-79
2024/01/07 07:12:32;;;;;;;3.63;1.67;;;;;;;;;;5113960;28;20245;-80
2024/01/07 07:14:59;;;;;;;3.67;3.37;;;;;;;;;;5099747;28;20208;-79
2024/01/07 07:17:27;;;;;;;2.83;2.53;;;;;;;;;;5103129;28;20224;-79
2024/01/07 07:19:54;;;;;;;7.00;6.13;;;;;;;;;;5104051;28;20195;-79
2024/01/07 07:22:21;;;;;;;2.83;2.40;;;;;;;;;;5111268;28;20207;-79
2024/01/07 07:24:48;;;;;;;3.43;3.07;;;;;;;;;;5113742;28;20203;-79
2024/01/07 07:27:14;;;;;;;9.50;6.60;;;;;;;;;;5111660;28;20195;-80
2024/01/07 07:29:41;;;;;;;6.03;5.40;;;;;;;;;;5094517;28;20199;-79
2024/01/07 07:32:10;;;;;;;5.07;2.63;;;;;;;;;;5094577;28;20228;-79
2024/01/07 07:34:38;;;;;;;7.03;2.60;;;;;;;;;;5095324;28;20184;-78
2024/01/07 07:37:05;;;;;;;1.90;1.70;;;;;;;;;;5114832;28;20276;-79
2024/01/07 07:39:32;;;;;;;3.80;2.10;;;;;;;;;;5114089;28;20226;-79
2024/01/07 07:41:59;;;;;;;3.13;2.93;;;;;;;;;;5113573;28;20192;-79
2024/01/07 07:44:26;;;;;;;3.17;2.87;;;;;;;;;;5114148;28;20206;-79
2024/01/07 07:46:55;;;;;;;5.97;5.47;;;;;;;;;;5114057;28;20210;-78
2024/01/07 07:49:22;;;;;;;5.60;4.23;;;;;;;;;;5114299;28;20202;-78
2024/01/07 07:51:50;;;;;;;3.77;3.10;;;;;;;;;;5114132;28;20572;-79
2024/01/07 07:54:17;;;;;;;2.30;2.00;;;;;;;;;;5113110;28;20215;-78
2024/01/07 07:56:44;;;;;;;4.60;2.60;;;;;;;;;;5112695;28;20219;-80
2024/01/07 07:59:10;;;;;;;2.77;2.20;;;;;;;;;;5093365;28;20200;-79
2024/01/07 08:01:37;;;;;;;3.47;2.70;;;;;;;;;;5104760;28;20196;-80
2024/01/07 08:04:05;;;;;;;3.93;1.90;;;;;;;;;;5113239;28;20191;-80
2024/01/07 08:06:31;;;;;;;1.77;1.60;;;;;;;;;;5113630;28;20282;-79
2024/01/07 08:09:00;;;;;;;7.60;3.33;;;;;;;;;;5113844;28;20191;-80
2024/01/07 08:11:26;;;;;;;5.60;1.67;;;;;;;;;;5101151;28;20207;-80
2024/01/07 08:13:53;;;;;;;5.33;2.50;;;;;;;;;;5094303;28;20206;-80
2024/01/07 08:16:20;;;;;;;3.17;1.53;;;;;;;;;;5109466;28;20203;-80
2024/01/07 08:18:47;;;;;;;22.93;13.53;;;;;;;;;;5112798;28;20215;-80
2024/01/07 08:21:14;;;;;;;5.67;3.80;;;;;;;;;;5112799;28;20199;-80
2024/01/07 08:23:40;;;;;;;8.40;4.20;;;;;;;;;;5113394;28;20563;-79
2024/01/07 08:26:12;;;;;;;5.23;2.80;;;;;;;;;;5111030;28;20214;-80
2024/01/07 08:28:39;;;;;;;4.03;1.30;;;;;;;;;;5092467;28;20196;-80
2024/01/07 08:31:07;;;;;;;2.77;1.83;;;;;;;;;;5092687;28;20196;-80
2024/01/07 08:33:33;;;;;;;5.83;2.50;;;;;;;;;;5093109;28;20247;-79
2024/01/07 08:36:00;;;;;;;6.17;3.50;;;;;;;;;;5105963;28;20199;-80
2024/01/07 08:38:27;;;;;;;4.10;1.83;;;;;;;;;;5103744;28;20589;-79
2024/01/07 08:40:54;;;;;;;4.27;2.67;;;;;;;;;;5072368;28;20263;-79
2024/01/07 08:43:22;;;;;;;5.97;2.73;;;;;;;;;;5105694;28;20669;-79
2024/01/07 08:45:48;;;;;;;4.60;2.63;;;;;;;;;;5111260;28;20198;-79
2024/01/07 08:48:15;;;;;;;8.17;2.70;;;;;;;;;;5111415;28;20658;-80
2024/01/07 08:50:42;;;;;;;3.03;2.33;;;;;;;;;;5103817;28;20195;-79
2024/01/07 08:53:12;;;;;;;6.40;2.20;;;;;;;;;;5112154;28;20200;-80
2024/01/07 08:55:39;;;;;;;4.00;2.63;;;;;;;;;;5112523;28;20227;-80
2024/01/07 08:58:06;;;;;;;6.43;4.63;;;;;;;;;;5112946;28;20230;-80
2024/01/07 09:00:34;;;;;;;4.10;2.53;;;;;;;;;;5110667;28;20187;-80
2024/01/07 09:03:02;;;;;;;3.37;2.07;;;;;;;;;;5112507;28;20195;-79
2024/01/07 09:05:29;;;;;;;4.67;1.57;;;;;;;;;;5111140;28;20188;-80
2024/01/07 09:07:55;;;;;;;8.80;1.60;;;;;;;;;;5112954;28;20207;-79
2024/01/07 09:10:24;;;;;;;9.10;3.40;;;;;;;;;;5112615;28;20199;-79
2024/01/07 09:12:52;;;;;;;9.70;2.23;;;;;;;;;;5110641;28;20203;-80
2024/01/07 09:15:20;;;;;;;6.57;3.00;;;;;;;;;;5105719;28;20203;-79
2024/01/07 09:17:48;;;;;;;5.30;2.40;;;;;;;;;;5091786;28;20212;-79
2024/01/07 09:20:15;;;;;;;4.03;1.70;;;;;;;;;;5105772;28;20222;-79
2024/01/07 09:22:43;;;;;;;6.60;3.20;;;;;;;;;;5112130;28;20205;-79
2024/01/07 09:25:10;;;;;;;5.43;2.83;;;;;;;;;;5112459;28;20196;-79
2024/01/07 09:27:37;;;;;;;7.00;2.90;;;;;;;;;;5112524;28;20594;-79
2024/01/07 09:30:05;;;;;;;7.97;2.33;;;;;;;;;;5111145;28;20201;-79
2024/01/07 09:32:32;;;;;;;6.60;3.77;;;;;;;;;;5111386;28;20223;-79
2024/01/07 09:35:00;;;;;;;14.07;5.93;;;;;;;;;;5111549;28;20199;-79
2024/01/07 09:37:27;;;;;;;5.27;2.00;;;;;;;;;;5110400;28;20237;-79
2024/01/07 09:39:54;;;;;;;8.87;2.20;;;;;;;;;;5112098;28;20199;-79
2024/01/07 09:42:21;;;;;;;5.53;3.27;;;;;;;;;;5112391;28;20209;-79
2024/01/07 09:44:49;;;;;;;12.67;3.57;;;;;;;;;;5112460;28;20587;-79
2024/01/07 09:47:16;;;;;;;8.50;4.40;;;;;;;;;;5110879;28;20685;-79
2024/01/07 09:49:44;;;;;;;10.60;3.67;;;;;;;;;;5112644;28;20195;-79
2024/01/07 09:52:13;;;;;;;11.47;5.80;;;;;;;;;;5112595;28;20191;-79
2024/01/07 09:54:41;;;;;;;15.73;7.47;;;;;;;;;;5112048;28;20661;-78
2024/01/07 09:57:10;;;;;;;6.50;3.03;;;;;;;;;;5111632;28;20283;-78
2024/01/07 09:59:39;;;;;;;11.83;5.73;;;;;;;;;;5115965;28;20204;-79
2024/01/07 10:02:05;;;;;;;13.83;4.13;;;;;;;;;;5114506;28;20622;-80
2024/01/07 10:04:32;;;;;;;8.37;2.63;;;;;;;;;;5115638;28;20637;-80
2024/01/07 10:06:59;;;;;;;15.17;9.10;;;;;;;;;;5115161;28;20195;-78
2024/01/07 10:09:31;;;;;;;6.77;3.53;;;;;;;;;;5114816;28;20192;-79
2024/01/07 10:11:58;;;;;;;10.63;4.90;;;;;;;;;;5115185;28;20199;-78
2024/01/07 10:14:25;;;;;;;8.63;6.07;;;;;;;;;;5115998;28;20204;-78
2024/01/07 10:16:53;;;;;;;70.27;30.73;;;;;;;;;;5117236;28;20201;-79
2024/01/07 10:19:23;;;;;;;53.77;25.93;;;;;;;;;;5115855;28;20227;-78
2024/01/07 10:22:01;;;;;;;82.20;41.43;;;;;;;;;;5116031;28;20209;-79
2024/01/07 10:24:36;;;;;;;87.57;46.93;;;;;;;;;;5114252;28;20252;-78
2024/01/07 10:27:04;;;;;;;33.37;15.90;;;;;;;;;;5115499;28;20702;-79
2024/01/07 10:29:32;;;;;;;6.37;3.87;;;;;;;;;;5115868;28;20221;-79
2024/01/07 10:31:59;;;;;;;35.80;18.67;;;;;;;;;;5115588;28;20222;-79
2024/01/07 10:34:27;;;;;;;25.03;16.17;;;;;;;;;;5111074;28;20286;-79
2024/01/07 10:36:56;;;;;;;11.17;6.70;;;;;;;;;;5094891;28;20200;-78
2024/01/07 10:39:22;;;;;;;13.63;6.20;;;;;;;;;;5104124;28;20596;-79
2024/01/07 10:41:57;;;;;;;11.50;4.57;;;;;;;;;;5115736;28;20203;-79
2024/01/07 10:44:23;;;;;;;14.47;5.50;;;;;;;;;;5106309;28;20202;-79
2024/01/07 10:46:53;;;;;;;12.60;6.90;;;;;;;;;;5095167;28;20203;-79
2024/01/07 10:49:21;;;;;;;14.60;5.83;;;;;;;;;;5094842;28;20200;-78
2024/01/07 10:52:02;;;;;;;9.83;4.10;;;;;;;;;;5094753;28;20667;-79
2024/01/07 10:54:33;;;;;;;10.80;5.77;;;;;;;;;;5094620;28;20196;-79
2024/01/07 10:57:15;;;;;;;12.00;6.50;;;;;;;;;;5095285;28;20204;-78
2024/01/07 10:59:42;;;;;;;8.60;4.47;;;;;;;;;;5074061;28;20225;-78
2024/01/07 11:02:10;;;;;;;8.27;4.70;;;;;;;;;;5089655;28;20199;-78
2024/01/07 11:04:43;;;;;;;14.83;5.90;;;;;;;;;;5115439;28;20608;-78
2024/01/07 11:07:18;;;;;;;11.30;3.77;;;;;;;;;;5112878;28;20203;-79
2024/01/07 11:09:55;;;;;;;13.67;4.23;;;;;;;;;;5113105;28;20199;-79
2024/01/07 11:12:23;;;;;;;8.97;3.20;;;;;;;;;;5113973;28;20191;-79
2024/01/07 11:14:52;;;;;;;10.53;2.70;;;;;;;;;;5114571;28;20665;-79
2024/01/07 11:17:41;;;;;;;9.73;3.77;;;;;;;;;;5113372;28;20283;-79
2024/01/07 11:20:11;;;;;;;13.47;5.30;;;;;;;;;;5113239;28;20196;-79
2024/01/07 11:22:38;;;;;;;13.70;7.43;;;;;;;;;;5114352;28;20328;-78
2024/01/07 11:25:32;;;;;;;15.67;7.83;;;;;;;;;;5114434;28;20670;-78
2024/01/07 11:28:02;;;;;;;16.50;4.33;;;;;;;;;;5114371;28;20202;-78
2024/01/07 11:30:29;;;;;;;11.17;6.27;;;;;;;;;;5115434;28;20192;-78
2024/01/07 11:33:00;;;;;;;15.33;6.90;;;;;;;;;;5114154;28;20219;-78
2024/01/07 11:35:55;;;;;;;7.57;4.43;;;;;;;;;;5114405;28;20195;-78
2024/01/07 11:38:22;;;;;;;7.47;4.20;;;;;;;;;;5103428;28;20234;-78
2024/01/07 11:40:50;;;;;;;9.83;3.23;;;;;;;;;;5113817;28;20194;-79
2024/01/07 11:43:18;;;;;;;10.43;3.90;;;;;;;;;;5112911;28;20192;-79
2024/01/07 11:45:45;;;;;;;12.07;5.53;;;;;;;;;;5104223;28;20570;-79
2024/01/07 11:48:15;;;;;;;16.90;4.90;;;;;;;;;;5109722;28;20206;-79
2024/01/07 11:50:42;;;;;;;11.17;4.63;;;;;;;;;;5113001;28;20714;-79
2024/01/07 11:53:12;;;;;;;15.37;5.57;;;;;;;;;;5112001;28;20191;-79
2024/01/07 11:55:39;;;;;;;18.93;12.50;;;;;;;;;;5104090;28;20192;-79
2024/01/07 11:58:06;;;;;;;29.37;17.03;;;;;;;;;;5096508;28;20220;-79
2024/01/07 12:00:34;;;;;;;32.07;17.30;;;;;;;;;;5108502;28;20562;-79
2024/01/07 12:03:02;;;;;;;11.03;6.20;;;;;;;;;;5094502;28;20198;-79
2024/01/07 12:05:28;;;;;;;23.47;7.60;;;;;;;;;;5095794;28;20720;-79
2024/01/07 12:07:56;;;;;;;15.13;7.37;;;;;;;;;;5113023;28;20199;-79
2024/01/07 12:10:24;;;;;;;13.40;3.97;;;;;;;;;;5112787;28;20206;-79
2024/01/07 12:12:51;;;;;;;17.87;8.50;;;;;;;;;;5112745;28;20266;-79
2024/01/07 12:15:19;;;;;;;14.27;8.63;;;;;;;;;;5112363;28;20227;-79
2024/01/07 12:17:57;;;;;;;17.47;5.63;;;;;;;;;;5112836;28;20232;-79
2024/01/07 12:20:23;;;;;;;10.70;4.70;;;;;;;;;;5113033;28;20202;-79
2024/01/07 12:22:50;;;;;;;13.30;5.43;;;;;;;;;;5112546;28;20220;-78
2024/01/07 12:25:22;;;;;;;19.40;4.20;;;;;;;;;;5113141;28;20662;-78
2024/01/07 12:27:52;;;;;;;11.43;4.53;;;;;;;;;;5111772;28;20613;-78
2024/01/07 12:30:19;;;;;;;13.47;3.83;;;;;;;;;;5112928;28;20256;-77
2024/01/07 12:32:46;;;;;;;11.30;4.83;;;;;;;;;;5112594;28;20280;-78
2024/01/07 12:35:15;;;;;;;14.40;4.20;;;;;;;;;;5111849;28;20191;-78
2024/01/07 12:37:43;;;;;;;21.17;4.07;;;;;;;;;;5112648;28;20559;-77
2024/01/07 12:40:13;;;;;;;20.40;9.10;;;;;;;;;;5113192;28;20224;-77
2024/01/07 12:42:44;;;;;;;12.80;6.37;;;;;;;;;;5111212;28;20188;-78
2024/01/07 12:45:13;;;;;;;18.07;4.60;;;;;;;;;;5112412;28;20692;-77
2024/01/07 12:47:40;;;;;;;14.47;7.13;;;;;;;;;;5112432;28;20631;-77
2024/01/07 12:50:08;;;;;;;15.30;3.43;;;;;;;;;;5112424;28;20195;-78
2024/01/07 12:52:37;;;;;;;20.43;6.03;;;;;;;;;;5112315;28;20576;-78
2024/01/07 12:55:04;;;;;;;24.43;7.57;;;;;;;;;;5112145;28;20199;-78
2024/01/07 12:57:31;;;;;;;10.00;4.90;;;;;;;;;;5112742;28;20199;-78
2024/01/07 12:59:58;;;;;;;16.37;7.53;;;;;;;;;;5110781;28;20214;-78
2024/01/07 13:02:25;;;;;;;13.70;4.63;;;;;;;;;;5112070;28;20195;-78
2024/01/07 13:04:54;;;;;;;12.47;3.73;;;;;;;;;;5110994;28;20195;-78
2024/01/07 13:07:21;;;;;;;16.73;5.17;;;;;;;;;;5107374;28;20192;-78
2024/01/07 13:09:49;;;;;;;37.53;20.33;;;;;;;;;;5112195;28;20202;-78
2024/01/07 13:12:16;;;;;;;24.37;14.43;;;;;;;;;;5111966;28;20192;-78
2024/01/07 13:14:43;;;;;;;17.40;8.27;;;;;;;;;;5110986;28;20183;-78
2024/01/07 13:17:12;;;;;;;34.20;19.60;;;;;;;;;;5111785;28;20201;-78
2024/01/07 13:19:39;;;;;;;19.80;7.10;;;;;;;;;;5112236;28;20269;-78
2024/01/07 13:22:06;;;;;;;22.33;8.90;;;;;;;;;;5111466;28;20661;-78
2024/01/07 13:24:33;;;;;;;18.53;5.33;;;;;;;;;;5112128;28;20207;-78
2024/01/07 13:27:01;;;;;;;13.03;4.70;;;;;;;;;;5107941;28;20188;-78
2024/01/07 13:29:27;;;;;;;12.23;4.33;;;;;;;;;;5107468;28;20282;-78
2024/01/07 13:31:54;;;;;;;13.17;5.60;;;;;;;;;;5110427;28;20708;-78
2024/01/07 13:34:21;;;;;;;12.67;4.53;;;;;;;;;;5111435;28;20493;-78
2024/01/07 13:36:48;;;;;;;16.23;6.73;;;;;;;;;;5111571;28;20199;-77
2024/01/07 13:39:17;;;;;;;15.13;5.50;;;;;;;;;;5112014;28;20215;-78
2024/01/07 13:41:44;;;;;;;17.30;6.43;;;;;;;;;;5112333;28;20206;-78
2024/01/07 13:44:17;;;;;;;19.63;9.83;;;;;;;;;;5110653;28;20195;-78
2024/01/07 13:46:45;;;;;;;57.43;34.07;;;;;;;;;;5111652;28;20199;-77
2024/01/07 13:49:12;;;;;;;40.30;20.53;;;;;;;;;;5110619;28;20203;-77
2024/01/07 13:51:39;;;;;;;15.37;10.77;;;;;;;;;;5099676;28;20663;-78
2024/01/07 13:54:07;;;;;;;19.30;8.30;;;;;;;;;;5105971;28;20540;-77
2024/01/07 13:56:35;;;;;;;23.13;12.57;;;;;;;;;;5111265;28;20196;-78
2024/01/07 13:59:03;;;;;;;24.83;17.30;;;;;;;;;;5112638;28;20215;-78
2024/01/07 14:01:32;;;;;;;23.00;9.17;;;;;;;;;;5091046;28;20316;-78
2024/01/07 14:03:58;;;;;;;20.17;9.53;;;;;;;;;;5090810;28;20207;-78
2024/01/07 14:06:25;;;;;;;15.20;6.00;;;;;;;;;;5110356;28;20203;-79
2024/01/07 14:08:55;;;;;;;10.43;5.10;;;;;;;;;;5106270;28;20210;-80
2024/01/07 14:11:22;;;;;;;18.07;7.27;;;;;;;;;;5110879;28;21177;-80
2024/01/07 14:13:49;;;;;;;34.40;17.60;;;;;;;;;;5097388;28;20667;-80
2024/01/07 14:16:15;;;;;;;43.90;24.77;;;;;;;;;;5095118;28;20249;-81
2024/01/07 14:18:44;;;;;;;26.33;13.73;;;;;;;;;;5098486;28;20223;-80
2024/01/07 14:21:11;;;;;;;30.63;17.67;;;;;;;;;;5108525;28;21718;-80
2024/01/07 14:23:38;;;;;;;32.47;20.03;;;;;;;;;;5107860;28;20245;-79
2024/01/07 14:26:05;;;;;;;38.40;19.87;;;;;;;;;;5104784;28;20189;-78
2024/01/07 14:28:31;;;;;;;33.23;15.57;;;;;;;;;;5093832;28;20194;-79
2024/01/07 14:30:58;;;;;;;37.37;20.53;;;;;;;;;;5110850;28;20273;-79
2024/01/07 14:33:24;;;;;;;33.60;16.53;;;;;;;;;;5107690;28;20251;-79
2024/01/07 14:35:53;;;;;;;42.47;20.70;;;;;;;;;;5110662;28;20234;-81
2024/01/07 14:38:20;;;;;;;37.70;24.97;;;;;;;;;;5110998;28;20674;-82
2024/01/07 14:40:47;;;;;;;46.13;21.10;;;;;;;;;;5110614;28;20247;-79